Flight Track Log - Related Links

Times and Time Zones

All times are in EST time to prevent confusion due to time zone crossing. See the SWA4922 flight status page for this flight to view local times or setup timezone preferences in your user account.

Time Position Orientation Groundspeed Altitude Reporting Facility
EST Latitude Longitude Course Direction KTS MPH feet Rate Location/Type
04:21PM 33.4333 -112.0333 270° West 166 191 2,000  Level Phoenix TRACON
04:22PM 33.4333 -112.1000 270° West 215 247 4,100 2,059 Climbing Phoenix TRACON
04:23PM 33.4344 -112.1425 272° West 207 238 5,500 2,598 Climbing Albuquerque Center
04:24PM 33.4703 -112.1872 314° West 229 264 8,300 2,634 Climbing Albuquerque Center
04:25PM 33.5394 -112.1700 12° North 253 291 10,900 2,439 Climbing Albuquerque Center
04:26PM 33.5969 -112.1033 44° Northeast 326 375 13,300 2,419 Climbing Albuquerque Center
04:27PM 33.6092 -111.9839 83° East 363 418 15,900 2,419 Climbing Albuquerque Center
04:28PM 33.6239 -111.8528 82° East 395 455 18,300 2,758 Climbing Albuquerque Center
04:29PM 33.6428 -111.6881 82° East 417 480 21,600 2,758 Climbing Albuquerque Center
04:30PM 33.6583 -111.5478 82° East 427 491 24,000 2,195 Climbing Albuquerque Center
04:31PM 33.6739 -111.4003 83° East 446 513 26,100 1,854 Climbing Albuquerque Center
04:32PM 33.6950 -111.2503 80° East 459 528 27,800 1,742 Climbing Albuquerque Center
04:33PM 33.7561 -111.0775 67° East 471 542 29,700 1,597 Climbing Albuquerque Center
04:34PM 33.8086 -110.9278 67° East 485 558 31,100 1,790 Climbing Albuquerque Center
04:35PM 33.8628 -110.7781 66° East 490 564 33,400 2,032 Climbing Albuquerque Center
04:36PM 33.9142 -110.6331 67° East 481 554 35,300 1,645 Climbing Albuquerque Center
04:37PM 33.9636 -110.4897 67° East 471 542 36,800 1,463 Climbing Albuquerque Center
04:38PM 34.0206 -110.3239 67° East 465 535 38,300 1,073 Climbing Albuquerque Center
04:39PM 34.0700 -110.1814 67° East 463 533 39,000 339 Climbing Albuquerque Center
04:40PM 34.1217 -110.0328 67° East 457 526 39,000  Level Albuquerque Center
04:41PM 34.1681 -109.8981 67° East 456 525 39,000  Level Albuquerque Center
04:42PM 34.2222 -109.7444 67° East 450 518 39,000  Level Albuquerque Center
04:43PM 34.2669 -109.6094 68° East 450 518 39,000  Level Albuquerque Center
04:44PM 34.3200 -109.4556 67° East 447 514 39,000  Level Albuquerque Center
04:45PM 34.3650 -109.3206 68° East 449 517 39,000  Level Albuquerque Center
04:46PM 34.4175 -109.1617 68° East 454 522 39,000  Level Albuquerque Center
04:47PM 34.4575 -109.0247 70° East 453 521 39,000  Level Albuquerque Center
04:48PM 34.4961 -108.8861 71° East 453 521 39,000  Level Albuquerque Center
04:50PM 34.5422 -108.7206 71° East 458 527 39,000  Level Albuquerque Center
04:51PM 34.5800 -108.5792 72° East 461 531 39,000  Level Albuquerque Center
04:52PM 34.6256 -108.4142 71° East 462 532 39,000  Level Albuquerque Center
04:53PM 34.6642 -108.2692 72° East 467 537 39,000  Level Albuquerque Center
04:54PM 34.7097 -108.1017 72° East 469 540 39,000  Level Albuquerque Center
04:55PM 34.7481 -107.9581 72° East 468 539 39,000  Level Albuquerque Center
04:56PM 34.7917 -107.7936 72° East 462 532 39,000  Level Albuquerque Center
04:57PM 34.8286 -107.6531 72° East 459 528 39,000  Level Albuquerque Center
04:58PM 34.8711 -107.4922 72° East 459 528 39,000  Level Albuquerque Center
04:59PM 34.9111 -107.3328 73° East 458 527 39,000  Level Albuquerque Center
05:00PM 34.9497 -107.1847 72° East 459 528 39,000  Level Albuquerque Center
05:01PM 34.9903 -107.0244 73° East 459 528 39,000  Level Albuquerque Center
05:02PM 35.0283 -106.8764 73° East 458 527 39,000  Level Albuquerque Center
05:03PM 35.0703 -106.7447 69° East 455 524 39,000  Level Albuquerque Center
05:04PM 35.1328 -106.5822 65° Northeast 451 519 39,000  Level Albuquerque Center
05:05PM 35.1844 -106.4383 66° East 452 520 39,000  Level Albuquerque Center
05:06PM 35.2361 -106.2989 66° East 453 521 39,000  Level Albuquerque Center
05:07PM 35.2869 -106.1608 66° East 450 518 39,000  Level Albuquerque Center
05:08PM 35.3372 -106.0217 66° East 451 519 39,000  Level Albuquerque Center
05:09PM 35.3942 -105.8675 66° East 446 513 39,000  Level Albuquerque Center
05:10PM 35.4464 -105.7219 66° East 443 510 39,000  Level Albuquerque Center
05:11PM 35.4964 -105.5850 66° East 444 511 39,000  Level Albuquerque Center
05:12PM 35.5453 -105.4489 66° East 444 511 39,000  Level Albuquerque Center
05:13PM 35.5958 -105.3067 66° East 447 514 39,000  Level Albuquerque Center
05:14PM 35.6464 -105.1664 66° East 446 513 39,000  Level Albuquerque Center
05:15PM 35.7106 -105.0392 58° Northeast 433 498 39,000  Level Albuquerque Center
05:16PM 35.7875 -104.8961 56° Northeast 426 490 39,000  Level Albuquerque Center
05:17PM 35.8536 -104.7744 56° Northeast 422 486 39,000  Level Albuquerque Center
05:18PM 35.9194 -104.6533 56° Northeast 421 484 39,000  Level Albuquerque Center
05:19PM 35.9847 -104.5314 56° Northeast 420 483 39,000  Level Albuquerque Center
05:20PM 36.0500 -104.4103 56° Northeast 419 482 39,000  Level Albuquerque Center
05:22PM 36.1147 -104.2897 56° Northeast 417 480 39,000  Level Albuquerque Center
05:23PM 36.1803 -104.1672 56° Northeast 420 483 39,000  Level Albuquerque Center
05:24PM 36.2450 -104.0450 57° Northeast 420 483 39,000  Level Albuquerque Center
05:25PM 36.3108 -103.9222 56° Northeast 422 486 39,000  Level Albuquerque Center
05:26PM 36.3872 -103.7792 56° Northeast 422 486 39,000  Level Albuquerque Center
05:27PM 36.4522 -103.6544 57° Northeast 425 489 39,000  Level Albuquerque Center
05:28PM 36.5167 -103.5317 57° Northeast 422 486 39,000  Level Albuquerque Center
05:29PM 36.5811 -103.4072 57° Northeast 423 487 39,000  Level Albuquerque Center
05:30PM 36.6478 -103.2775 57° Northeast 422 486 39,000  Level Albuquerque Center
05:31PM 36.7461 -103.0831 58° Northeast 423 487 39,000  Level Kansas City Center
05:32PM 36.7792 -103.0219 56° Northeast 423 487 39,000  Level Albuquerque Center
05:33PM 36.8403 -102.9044 57° Northeast 423 487 39,000  Level Albuquerque Center
05:34PM 36.9125 -102.7636 57° Northeast 430 495 39,000  Level Albuquerque Center
05:35PM 36.9742 -102.6450 57° Northeast 429 494 39,000  Level Albuquerque Center
05:36PM 37.0419 -102.5086 58° Northeast 425 489 39,000  Level Albuquerque Center
05:37PM 37.1011 -102.3911 58° Northeast 419 482 39,000  Level Albuquerque Center
05:38PM 37.1325 -102.3022 66° East 431 496 39,000  Level Kansas City Center
05:39PM 37.1803 -102.1681 66° East 439 505 39,000  Level Kansas City Center
05:40PM 37.2375 -102.0136 65° Northeast 437 503 39,000  Level Kansas City Center
05:41PM 37.2847 -101.8800 66° East 437 503 39,000  Level Kansas City Center
05:42PM 37.3400 -101.7258 66° East 436 502 39,000  Level Kansas City Center
05:43PM 37.3878 -101.5928 66° East 435 501 39,000  Level Kansas City Center
05:44PM 37.4350 -101.4589 66° East 437 503 39,000  Level Kansas City Center
05:45PM 37.4914 -101.3025 66° East 439 505 39,000  Level Kansas City Center
05:46PM 37.5392 -101.1669 66° East 442 509 39,000  Level Kansas City Center
05:47PM 37.5969 -101.0014 66° East 443 510 39,000  Level Kansas City Center
05:48PM 37.6464 -100.8594 66° East 443 510 39,000  Level Kansas City Center
05:49PM 37.6969 -100.7167 66° East 442 509 39,000  Level Kansas City Center
05:50PM 37.7461 -100.5736 66° East 443 510 39,000  Level Kansas City Center
05:51PM 37.7953 -100.4297 67° East 441 507 39,000  Level Kansas City Center
05:52PM 37.8489 -100.2719 67° East 438 504 39,000  Level Kansas City Center
05:53PM 37.8947 -100.1364 67° East 437 503 39,000  Level Kansas City Center
05:54PM 37.9486 -99.9778 67° East 438 504 39,000  Level Kansas City Center
05:55PM 37.9936 -99.8400 67° East 441 507 39,000  Level Kansas City Center
05:56PM 38.0469 -99.6800 67° East 442 509 39,000  Level Kansas City Center
05:57PM 38.0931 -99.5444 67° East 439 505 39,000  Level Kansas City Center
05:58PM 38.1386 -99.3992 68° East 440 506 39,000  Level Kansas City Center
05:59PM 38.1875 -99.2561 66° East 441 507 39,000  Level Kansas City Center
06:00PM 38.2350 -99.1131 67° East 439 505 39,000  Level Kansas City Center
06:01PM 38.2817 -98.9703 67° East 439 505 39,000  Level Kansas City Center
06:02PM 38.3389 -98.7964 67° East 443 510 39,000  Level Kansas City Center
06:03PM 38.3847 -98.6522 68° East 438 504 39,000  Level Kansas City Center
06:04PM 38.4308 -98.5136 67° East 427 491 39,000  Level Kansas City Center
06:05PM 38.4750 -98.3744 68° East 422 486 39,000  Level Kansas City Center
06:07PM 38.5200 -98.2336 68° East 427 491 39,000 387 Level Kansas City Center
06:08PM 38.5658 -98.0914 68° East 431 496 39,800 484 Climbing Kansas City Center
06:09PM 38.6203 -97.9175 68° East 437 503 40,000 97 Climbing Kansas City Center
06:10PM 38.6658 -97.7725 68° East 438 504 40,000  Level Kansas City Center
06:11PM 38.7072 -97.6378 68° East 437 503 40,000  Level Kansas City Center
06:12PM 38.7556 -97.4842 68° East 435 501 40,000  Level Kansas City Center
06:13PM 38.7997 -97.3389 69° East 436 502 40,000  Level Kansas City Center
06:14PM 38.8444 -97.1944 68° East 436 502 40,000  Level Kansas City Center
06:15PM 38.8883 -97.0494 69° East 436 502 40,000  Level Kansas City Center
06:16PM 38.9408 -96.8753 69° East 437 503 40,000  Level Kansas City Center
06:17PM 38.9861 -96.7322 68° East 434 499 40,000  Level Kansas City Center
06:18PM 39.0328 -96.5739 69° East 441 507 40,000  Level Kansas City Center
06:19PM 39.0744 -96.4289 70° East 448 516 40,000  Level Kansas City Center
06:20PM 39.1233 -96.2614 69° East 449 517 40,000  Level Kansas City Center
06:21PM 39.1658 -96.1181 69° East 448 516 40,000  Level Kansas City Center
06:22PM 39.2089 -95.9742 69° East 449 517 40,000  Level Kansas City Center
06:23PM 39.2583 -95.8019 70° East 455 524 40,000  Level Kansas City Center
06:24PM 39.3008 -95.6542 70° East 458 527 40,000  Level Kansas City Center
06:25PM 39.3500 -95.4833 70° East 451 519 40,000  Level Kansas City Center
06:26PM 39.3950 -95.3247 70° East 453 521 40,000  Level Kansas City Center
06:27PM 39.4397 -95.1667 70° East 447 514 40,000  Level Kansas City Center
06:28PM 39.4822 -95.0200 69° East 443 510 40,000 -145 Level Kansas City Center
06:29PM 39.5222 -94.8753 70° East 444 511 39,700 -484 Descending Kansas City Center
06:30PM 39.5689 -94.7081 70° East 442 509 39,000 -677 Descending Kansas City Center
06:31PM 39.6094 -94.5636 70° East 445 512 38,300 -968 Descending Kansas City Center
06:32PM 39.6558 -94.3944 70° East 445 512 37,000 -629 Descending Kansas City Center
06:33PM 39.6956 -94.2522 70° East 437 503 37,000  Level Kansas City Center
06:34PM 39.7392 -94.0858 71° East 436 502 37,000  Level Kansas City Center
06:35PM 39.7789 -93.9436 70° East 438 504 37,000  Level Kansas City Center
06:36PM 39.8208 -93.7833 71° East 439 505 37,000  Level Kansas City Center
06:38PM 39.8606 -93.6358 71° East 437 503 37,000 -823 Level Kansas City Center
06:39PM 39.9011 -93.4878 70° East 438 504 35,300 -1,742 Descending Kansas City Center
06:40PM 39.9397 -93.3403 71° East 436 502 33,400 -1,113 Descending Kansas City Center
06:41PM 39.9858 -93.1667 71° East 423 487 33,000 -194 Descending Kansas City Center
06:42PM 40.0222 -93.0278 71° East 411 473 33,000 -387 Level Kansas City Center
06:43PM 40.0583 -92.8881 71° East 411 473 32,200 -919 Descending Kansas City Center
06:44PM 40.0975 -92.7364 71° East 408 470 31,100 -581 Descending Kansas City Center
06:45PM 40.1331 -92.5956 72° East 421 484 31,000 -48 Descending Kansas City Center
06:46PM 40.1683 -92.4283 75° East 429 494 31,000  Level Kansas City Center
06:47PM 40.1967 -92.2833 76° East 432 497 31,000  Level Kansas City Center
06:48PM 40.2258 -92.1350 76° East 429 494 31,000  Level Kansas City Center
06:49PM 40.2550 -91.9861 76° East 427 491 31,000  Level Kansas City Center
06:50PM 40.2894 -91.8072 76° East 426 490 31,000  Level Kansas City Center
06:51PM 40.3186 -91.6589 75° East 425 489 31,000 -194 Level Kansas City Center
06:52PM 40.3458 -91.5100 76° East 423 487 30,600 -677 Descending Kansas City Center
06:53PM 40.3806 -91.3614 73° East 427 491 29,600 -774 Descending Kansas City Center
06:54PM 40.4300 -91.2125 66° East 410 472 29,000 -290 Descending Kansas City Center
06:55PM 40.4697 -91.0844 68° East 386 444 29,000  Level Kansas City Center
06:56PM 40.4936 -91.0064 68° East 386 444 29,000  Level Chicago Center
06:57PM 40.5364 -90.8758 67° East 389 448 29,000  Level Chicago Center
06:58PM 40.5822 -90.7506 64° Northeast 383 441 29,000  Level Chicago Center
06:59PM 40.6308 -90.6217 64° Northeast 390 449 29,000  Level Chicago Center
07:00PM 40.6767 -90.4928 65° Northeast 390 449 29,000  Level Chicago Center
07:01PM 40.7244 -90.3608 64° Northeast 396 456 29,000  Level Chicago Center
07:02PM 40.7800 -90.2106 64° Northeast 400 460 29,000  Level Chicago Center
07:03PM 40.8281 -90.0769 65° Northeast 404 465 29,000  Level Chicago Center
07:04PM 40.8753 -89.9436 65° Northeast 402 463 29,000 -1,200 Level Chicago Center
07:05PM 40.9228 -89.8072 65° Northeast 406 467 26,500 -2,688 Descending Chicago Center
07:06PM 40.9831 -89.6403 64° Northeast 419 482 23,400 -2,613 Descending Chicago Center
07:07PM 41.0281 -89.5144 65° Northeast 410 472 21,100 -2,274 Descending Chicago Center
07:08PM 41.0747 -89.3817 65° Northeast 401 461 18,700 -2,081 Descending Chicago Center
07:09PM 41.1200 -89.2531 65° Northeast 390 449 16,800 -1,935 Descending Chicago Center
07:10PM 41.1639 -89.1253 65° Northeast 369 425 14,700 -1,935 Descending Chicago Center
07:11PM 41.2047 -89.0081 65° Northeast 355 409 12,800 -2,032 Descending Chicago Center
07:12PM 41.2522 -88.8686 66° East 348 400 10,500 -1,597 Descending Chicago Center
07:13PM 41.2889 -88.7589 66° East 331 381 9,500 -1,210 Descending Chicago Center
07:14PM 41.3242 -88.6569 65° Northeast 310 357 8,000 -1,452 Descending Chicago Center
07:15PM 41.3581 -88.5558 66° East 303 349 6,500 -1,016 Descending Chicago Center
07:16PM 41.3997 -88.4650 59° Northeast 291 335 5,900 -290 Descending Chicago Center
07:17PM 41.4497 -88.3828 51° Northeast 286 329 5,900  Level Chicago Center
07:18PM 41.4994 -88.3000 51° Northeast 286 329 5,900 -48 Level Chicago Center
07:19PM 41.5517 -88.1928 57° Northeast 286 329 5,800 -581 Descending Chicago Center
07:20PM 41.5939 -88.1022 58° Northeast 285 328 4,700 -919 Descending Chicago Center
07:21PM 41.6347 -88.0139 58° Northeast 281 323 3,900 -390 Descending Chicago Center
07:22PM 41.6692 -87.9372 59° Northeast 257 296 3,900  Level Chicago Center
07:23PM 41.7025 -87.8656 58° Northeast 238 274 3,900  Level Chicago Center
07:25PM 41.7289 -87.8036 60° Northeast 212 244 3,900  Level Chicago Center
07:26PM 41.7561 -87.7431 59° Northeast 196 226 3,900  Level Chicago Center
07:27PM 41.7581 -87.6719 88° East 194 223 3,900  Level Chicago Center
07:28PM 41.7611 -87.5864 87° East 192 221 3,900 -194 Level Chicago Center
07:29PM 41.7597 -87.5161 91° East 190 219 3,500 -484 Descending Chicago Center
07:30PM 41.8053 -87.4933 20° North 189 217 2,900 -290 Descending Chicago Center
07:31PM 41.8489 -87.5108 343° North 179 206 2,900 -48 Level Chicago Center
07:32PM 41.8494 -87.5697 271° West 172 198 2,800 -242 Descending Chicago Center
07:33PM 41.8464 -87.6303 266° West 165 190 2,400 -581 Descending Chicago Center
07:34PM 41.8231 -87.6881 242° Southwest 155 178 1,600 -624 Descending Chicago Center
07:35PM 41.8003 -87.7294 234° Southwest 143 165 1,100 -476 Descending Chicago Center

Login

Don't have an account? Register now (free) for customized features, flight alerts, and more!